createdAt,value
2018-06-09T00:01:49.909Z,14.30
2018-06-09T00:06:45.044Z,14.30
2018-06-09T00:09:12.441Z,14.30
2018-06-09T00:11:39.968Z,14.20
2018-06-09T00:14:07.476Z,14.20
2018-06-09T00:16:35.702Z,14.10
2018-06-09T00:19:03.158Z,14.00
2018-06-09T00:21:30.560Z,14.00
2018-06-09T00:23:58.128Z,14.00
2018-06-09T00:26:25.674Z,14.00
2018-06-09T00:28:53.770Z,14.00
2018-06-09T00:31:21.409Z,13.90
2018-06-09T00:33:49.172Z,14.00
2018-06-09T00:36:16.762Z,13.90
2018-06-09T00:41:11.843Z,13.90
2018-06-09T00:43:39.368Z,13.90
2018-06-09T00:46:07.207Z,13.90
2018-06-09T00:48:34.724Z,14.00
2018-06-09T00:51:02.288Z,13.90
2018-06-09T00:53:29.672Z,13.80
2018-06-09T00:58:30.191Z,13.80
2018-06-09T01:00:57.739Z,13.80
2018-06-09T01:03:25.296Z,13.80
2018-06-09T01:05:52.822Z,13.80
2018-06-09T01:08:20.328Z,13.80
2018-06-09T01:10:47.719Z,13.70
2018-06-09T01:13:15.120Z,13.70
2018-06-09T01:15:42.629Z,13.70
2018-06-09T01:18:10.017Z,13.70
2018-06-09T01:20:37.593Z,13.60
2018-06-09T01:23:05.096Z,13.50
2018-06-09T01:25:32.633Z,13.50
2018-06-09T01:28:00.038Z,13.50
2018-06-09T01:30:27.533Z,13.50
2018-06-09T01:32:55.022Z,13.50
2018-06-09T01:37:49.830Z,13.50
2018-06-09T01:40:17.425Z,13.50
2018-06-09T01:42:44.792Z,13.40
2018-06-09T01:45:12.181Z,13.40
2018-06-09T01:47:40.601Z,13.40
2018-06-09T01:50:07.995Z,13.40
2018-06-09T01:52:35.524Z,13.40
2018-06-09T01:55:03.010Z,13.30
2018-06-09T01:57:30.568Z,13.30
2018-06-09T01:59:58.008Z,13.30
2018-06-09T02:02:25.366Z,13.20
2018-06-09T02:04:52.754Z,13.20
2018-06-09T02:07:20.281Z,13.20
2018-06-09T02:09:47.798Z,13.20
2018-06-09T02:12:15.256Z,13.10
2018-06-09T02:14:43.588Z,13.10
2018-06-09T02:17:11.070Z,13.10
2018-06-09T02:19:38.509Z,13.00
2018-06-09T02:22:06.039Z,12.90
2018-06-09T02:24:33.706Z,12.90
2018-06-09T02:27:01.127Z,12.90
2018-06-09T02:29:28.642Z,13.00
2018-06-09T02:31:56.080Z,13.00
2018-06-09T02:34:23.584Z,13.00
2018-06-09T02:36:51.019Z,13.00
2018-06-09T02:41:46.001Z,12.80
2018-06-09T02:44:13.383Z,12.80
2018-06-09T02:46:40.956Z,12.80
2018-06-09T02:51:36.371Z,12.70
2018-06-09T02:56:31.155Z,12.70
2018-06-09T02:58:58.560Z,12.70
2018-06-09T03:01:26.447Z,12.70
2018-06-09T03:03:53.858Z,12.70
2018-06-09T03:08:48.895Z,12.70
2018-06-09T03:11:16.295Z,12.60
2018-06-09T03:13:43.837Z,12.60
2018-06-09T03:16:11.356Z,12.60
2018-06-09T03:18:38.749Z,12.60
2018-06-09T03:21:06.428Z,12.60
2018-06-09T03:23:34.355Z,12.60
2018-06-09T03:26:01.888Z,12.60
2018-06-09T03:33:24.427Z,12.60
2018-06-09T03:35:51.793Z,12.60
2018-06-09T03:38:19.179Z,12.60
2018-06-09T03:40:46.597Z,12.60
2018-06-09T03:43:14.146Z,12.60
2018-06-09T03:45:41.806Z,12.70
2018-06-09T03:48:09.358Z,12.60
2018-06-09T03:50:37.029Z,12.70
2018-06-09T03:53:04.589Z,12.80
2018-06-09T03:55:32.059Z,12.80
2018-06-09T03:57:59.598Z,12.80
2018-06-09T04:00:27.262Z,12.90
2018-06-09T04:02:54.714Z,12.90
2018-06-09T04:05:22.286Z,12.90
2018-06-09T04:07:49.760Z,13.00
2018-06-09T04:12:44.841Z,13.10
2018-06-09T04:15:12.356Z,13.10
2018-06-09T04:17:39.920Z,13.10
2018-06-09T04:20:07.433Z,13.10
2018-06-09T04:22:34.898Z,13.20
2018-06-09T04:27:29.819Z,13.30
2018-06-09T04:29:57.332Z,13.40
2018-06-09T04:32:24.724Z,13.50
2018-06-09T04:34:52.159Z,13.60
2018-06-09T04:37:19.728Z,13.70
2018-06-09T04:39:47.405Z,13.80
2018-06-09T04:42:15.396Z,13.90
2018-06-09T04:44:42.810Z,14.00
2018-06-09T04:47:10.363Z,14.10
2018-06-09T04:49:38.121Z,14.20
2018-06-09T04:52:05.689Z,14.20
2018-06-09T04:54:33.116Z,14.30
2018-06-09T04:57:00.690Z,14.40
2018-06-09T04:59:28.302Z,14.50
2018-06-09T05:01:55.919Z,14.70
2018-06-09T05:04:23.450Z,14.80
2018-06-09T05:06:51.135Z,14.90
2018-06-09T05:09:18.597Z,15.10
2018-06-09T05:11:46.298Z,15.30
2018-06-09T05:14:14.076Z,15.50
2018-06-09T05:16:41.478Z,15.70
2018-06-09T05:19:09.148Z,15.90
2018-06-09T05:21:36.816Z,16.20
2018-06-09T05:24:04.889Z,16.50
2018-06-09T05:26:32.418Z,16.80
2018-06-09T05:29:00.029Z,17.00
2018-06-09T05:31:27.580Z,17.20
2018-06-09T05:36:23.374Z,17.50
2018-06-09T05:38:50.804Z,17.70
2018-06-09T05:41:18.282Z,18.00
2018-06-09T05:43:46.078Z,18.20
2018-06-09T05:48:41.182Z,19.00
2018-06-09T05:51:08.758Z,19.90
2018-06-09T05:56:04.391Z,21.50
2018-06-09T06:00:59.481Z,22.90
2018-06-09T06:03:26.937Z,23.60
2018-06-09T06:05:54.490Z,24.00
2018-06-09T06:08:21.951Z,24.40
2018-06-09T06:10:49.467Z,24.70
2018-06-09T06:13:16.911Z,25.00
2018-06-09T06:15:44.469Z,25.00
2018-06-09T06:18:12.139Z,25.30
2018-06-09T06:20:39.787Z,25.20
2018-06-09T06:23:07.318Z,25.60
2018-06-09T06:25:34.812Z,25.90
2018-06-09T06:28:02.762Z,26.00
2018-06-09T06:30:30.344Z,25.80
2018-06-09T06:32:58.044Z,25.60
2018-06-09T06:35:25.785Z,25.50
2018-06-09T06:37:53.188Z,25.40
2018-06-09T06:42:48.312Z,25.90
2018-06-09T06:47:43.223Z,26.30
2018-06-09T06:52:38.333Z,26.70
2018-06-09T06:55:05.710Z,26.70
2018-06-09T06:57:33.595Z,26.70
2018-06-09T07:00:01.017Z,26.90
2018-06-09T07:02:28.778Z,26.90
2018-06-09T07:09:51.664Z,26.60
2018-06-09T07:14:48.387Z,26.40
2018-06-09T07:17:15.974Z,26.50
2018-06-09T07:22:11.037Z,26.60
2018-06-09T07:24:38.469Z,26.50
2018-06-09T07:27:06.059Z,26.40
2018-06-09T07:29:33.637Z,26.30
2018-06-09T07:32:01.501Z,26.40
2018-06-09T07:34:29.070Z,26.50
2018-06-09T07:36:56.506Z,26.70
2018-06-09T07:39:24.061Z,26.80
2018-06-09T07:41:51.450Z,26.90
2018-06-09T07:44:18.837Z,27.00
2018-06-09T07:46:46.459Z,27.10
2018-06-09T07:49:14.142Z,27.20
2018-06-09T07:56:36.736Z,27.00
2018-06-09T07:59:04.209Z,26.70
2018-06-09T08:01:31.689Z,26.50
2018-06-09T08:06:27.168Z,26.20
2018-06-09T08:08:54.686Z,26.20
2018-06-09T08:11:22.108Z,26.20
2018-06-09T08:13:49.694Z,26.20
2018-06-09T08:16:17.284Z,26.30
2018-06-09T08:21:12.198Z,26.20
2018-06-09T08:26:07.173Z,26.60
2018-06-09T08:28:34.647Z,26.80
2018-06-09T08:31:02.202Z,27.00
2018-06-09T08:33:29.643Z,27.00
2018-06-09T08:35:57.174Z,27.20
2018-06-09T08:38:24.724Z,27.30
2018-06-09T08:40:52.114Z,27.40
2018-06-09T08:43:19.582Z,27.50
2018-06-09T08:45:47.107Z,27.60
2018-06-09T08:48:14.545Z,27.70
2018-06-09T08:50:42.034Z,27.60
2018-06-09T08:53:09.951Z,27.60
2018-06-09T08:58:04.840Z,28.10
2018-06-09T09:00:32.330Z,28.10
2018-06-09T09:02:59.810Z,28.30
2018-06-09T09:05:27.355Z,28.20
2018-06-09T09:07:54.847Z,28.20
2018-06-09T09:10:23.020Z,28.50
2018-06-09T09:12:50.407Z,28.60
2018-06-09T09:15:17.979Z,28.70
2018-06-09T09:17:45.501Z,28.80
2018-06-09T09:20:13.019Z,29.00
2018-06-09T09:22:40.622Z,29.00
2018-06-09T09:25:08.185Z,29.10
2018-06-09T09:27:36.010Z,29.20
2018-06-09T09:30:04.527Z,29.30
2018-06-09T09:32:32.052Z,29.40
2018-06-09T09:34:59.550Z,29.40
2018-06-09T09:37:27.021Z,29.20
2018-06-09T09:39:54.712Z,29.10
2018-06-09T09:42:22.198Z,29.00
2018-06-09T09:44:49.649Z,28.80
2018-06-09T09:47:17.219Z,29.20
2018-06-09T09:49:44.605Z,29.50
2018-06-09T09:52:12.078Z,29.50
2018-06-09T09:57:06.989Z,29.60
2018-06-09T10:02:01.957Z,29.40
2018-06-09T10:04:29.424Z,29.40
2018-06-09T10:06:56.886Z,29.40
2018-06-09T10:09:24.363Z,29.40
2018-06-09T10:11:51.850Z,29.30
2018-06-09T10:14:19.258Z,29.10
2018-06-09T10:16:46.682Z,29.10
2018-06-09T10:19:14.083Z,29.20
2018-06-09T10:21:41.630Z,29.30
2018-06-09T10:24:09.046Z,29.40
2018-06-09T10:26:38.025Z,29.40
2018-06-09T10:29:05.457Z,29.40
2018-06-09T10:34:00.502Z,29.30
2018-06-09T10:36:27.948Z,29.40
2018-06-09T10:38:55.529Z,29.60
2018-06-09T10:41:23.110Z,29.80
2018-06-09T10:43:50.743Z,29.90
2018-06-09T10:46:18.462Z,29.90
2018-06-09T10:48:46.099Z,29.90
2018-06-09T10:51:13.666Z,30.00
2018-06-09T10:53:41.148Z,30.00
2018-06-09T10:58:36.518Z,29.40
2018-06-09T11:01:03.885Z,29.30
2018-06-09T11:03:31.573Z,29.30
2018-06-09T11:05:59.048Z,29.60
2018-06-09T11:10:54.227Z,30.00
2018-06-09T11:13:21.816Z,29.80
2018-06-09T11:15:49.409Z,29.50
2018-06-09T11:18:16.895Z,29.40
2018-06-09T11:20:44.308Z,29.40
2018-06-09T11:25:39.350Z,29.50
2018-06-09T11:28:06.948Z,29.50
2018-06-09T11:30:34.424Z,29.60
2018-06-09T11:33:01.859Z,29.60
2018-06-09T11:35:29.328Z,29.60
2018-06-09T11:37:56.867Z,29.60
2018-06-09T11:40:24.354Z,29.60
2018-06-09T11:42:51.888Z,29.70
2018-06-09T11:45:19.371Z,30.00
2018-06-09T11:47:46.917Z,29.90
2018-06-09T11:50:14.458Z,29.90
2018-06-09T11:52:42.063Z,29.80
2018-06-09T11:57:37.143Z,29.70
2018-06-09T12:00:04.711Z,29.80
2018-06-09T12:02:32.331Z,30.20
2018-06-09T12:04:59.689Z,30.30
2018-06-09T12:07:27.138Z,30.50
2018-06-09T12:09:54.597Z,30.60
2018-06-09T12:12:22.135Z,30.60
2018-06-09T12:14:50.322Z,30.40
2018-06-09T12:17:17.817Z,30.30
2018-06-09T12:19:45.221Z,30.50
2018-06-09T12:22:12.839Z,30.60
2018-06-09T12:24:40.224Z,30.60
2018-06-09T12:29:35.169Z,30.50
2018-06-09T12:32:02.877Z,30.70
2018-06-09T12:34:30.382Z,30.60
2018-06-09T12:36:57.900Z,30.60
2018-06-09T12:39:25.387Z,30.40
2018-06-09T12:41:52.840Z,30.20
2018-06-09T12:44:20.307Z,29.80
2018-06-09T12:46:47.731Z,29.70
2018-06-09T12:49:15.202Z,29.50
2018-06-09T12:54:10.157Z,29.50
2018-06-09T12:56:37.579Z,29.40
2018-06-09T12:59:05.005Z,29.30
2018-06-09T13:01:32.536Z,29.30
2018-06-09T13:04:00.571Z,29.50
2018-06-09T13:06:28.043Z,29.90
2018-06-09T13:08:55.546Z,29.80
2018-06-09T13:11:23.241Z,30.00
2018-06-09T13:13:50.741Z,30.30
2018-06-09T13:16:18.269Z,30.30
2018-06-09T13:18:45.714Z,30.40
2018-06-09T13:21:13.284Z,30.30
2018-06-09T13:23:40.838Z,30.50
2018-06-09T13:26:08.234Z,30.50
2018-06-09T13:28:35.721Z,30.00
2018-06-09T13:31:03.208Z,29.90
2018-06-09T13:33:30.631Z,29.90
2018-06-09T13:35:58.291Z,30.00
2018-06-09T13:38:25.680Z,29.80
2018-06-09T13:40:53.218Z,29.70
2018-06-09T13:45:49.208Z,29.30
2018-06-09T13:48:16.658Z,29.00
2018-06-09T13:50:44.156Z,28.70
2018-06-09T13:53:11.496Z,28.60
2018-06-09T13:55:38.875Z,28.50
2018-06-09T13:58:06.338Z,28.20
2018-06-09T14:03:01.260Z,27.80
2018-06-09T14:07:56.303Z,27.60
2018-06-09T14:10:23.727Z,27.10
2018-06-09T14:25:08.761Z,24.80
2018-06-09T14:27:36.142Z,24.60
2018-06-09T14:30:03.695Z,24.40
2018-06-09T14:32:31.132Z,24.30
2018-06-09T14:34:58.616Z,24.20
2018-06-09T14:37:26.204Z,24.00
2018-06-09T14:39:53.719Z,23.90
2018-06-09T14:44:48.668Z,23.50
2018-06-09T14:47:16.056Z,23.10
2018-06-09T14:49:43.578Z,22.80
2018-06-09T14:52:11.066Z,22.40
2018-06-09T14:54:38.628Z,22.20
2018-06-09T14:57:06.089Z,22.00
2018-06-09T14:59:33.590Z,21.90
2018-06-09T15:02:01.053Z,21.80
2018-06-09T15:04:28.570Z,21.50
2018-06-09T15:06:56.125Z,21.50
2018-06-09T15:09:23.634Z,21.40
2018-06-09T15:11:51.132Z,21.40
2018-06-09T15:14:18.666Z,21.40
2018-06-09T15:16:46.116Z,21.30
2018-06-09T15:19:13.551Z,21.20
2018-06-09T15:21:42.215Z,21.20
2018-06-09T15:26:37.129Z,21.00
2018-06-09T15:31:32.783Z,20.70
2018-06-09T15:34:00.271Z,20.70
2018-06-09T15:36:27.774Z,20.50
2018-06-09T15:38:55.240Z,20.60
2018-06-09T15:43:50.374Z,20.80
2018-06-09T15:46:17.844Z,20.80
2018-06-09T15:48:45.289Z,20.90
2018-06-09T15:51:12.814Z,20.90
2018-06-09T15:53:40.370Z,20.90
2018-06-09T15:56:07.993Z,20.90
2018-06-09T15:58:35.776Z,21.10
2018-06-09T16:01:03.352Z,21.20
2018-06-09T16:03:30.939Z,21.20
2018-06-09T16:05:58.509Z,21.30
2018-06-09T16:08:26.053Z,21.30
2018-06-09T16:10:53.542Z,21.30
2018-06-09T16:13:21.191Z,21.40
2018-06-09T16:15:48.714Z,21.50
2018-06-09T16:18:16.203Z,21.60
2018-06-09T16:20:43.703Z,21.80
2018-06-09T16:23:11.162Z,21.80
2018-06-09T16:25:38.913Z,21.70
2018-06-09T16:28:06.461Z,21.70
2018-06-09T16:30:33.981Z,21.70
2018-06-09T16:33:01.413Z,21.80
2018-06-09T16:35:28.862Z,21.80
2018-06-09T16:37:56.975Z,21.80
2018-06-09T16:40:24.487Z,21.60
2018-06-09T16:42:51.998Z,21.60
2018-06-09T16:45:19.554Z,21.60
2018-06-09T16:47:47.180Z,21.60
2018-06-09T16:52:42.300Z,21.80
2018-06-09T16:55:09.874Z,21.90
2018-06-09T16:57:37.374Z,22.00
2018-06-09T17:00:05.058Z,22.00
2018-06-09T17:02:32.645Z,22.00
2018-06-09T17:07:27.669Z,21.90
2018-06-09T17:12:22.645Z,21.90
2018-06-09T17:14:51.436Z,22.00
2018-06-09T17:17:18.822Z,22.10
2018-06-09T17:19:46.396Z,22.20
2018-06-09T17:22:13.845Z,22.30
2018-06-09T17:24:41.497Z,22.10
2018-06-09T17:29:36.481Z,22.00
2018-06-09T17:32:04.016Z,21.90
2018-06-09T17:34:31.583Z,21.90
2018-06-09T17:36:58.999Z,21.90
2018-06-09T17:39:26.417Z,22.00
2018-06-09T17:41:53.784Z,22.00
2018-06-09T17:44:21.190Z,22.00
2018-06-09T17:46:48.723Z,22.00
2018-06-09T17:49:16.190Z,22.00
2018-06-09T17:51:43.679Z,21.90
2018-06-09T17:54:11.161Z,21.90
2018-06-09T17:56:38.714Z,21.90
2018-06-09T17:59:06.249Z,21.80
2018-06-09T18:01:34.644Z,21.70
2018-06-09T18:04:02.219Z,21.60
2018-06-09T18:06:29.783Z,21.60
2018-06-09T18:11:25.069Z,21.50
2018-06-09T18:13:52.830Z,21.40
2018-06-09T18:16:20.405Z,21.30
2018-06-09T18:18:47.870Z,21.10
2018-06-09T18:21:15.298Z,21.10
2018-06-09T18:23:43.048Z,21.10
2018-06-09T18:26:10.598Z,21.00
2018-06-09T18:28:38.156Z,21.00
2018-06-09T18:31:06.129Z,20.90
2018-06-09T18:33:33.720Z,20.80
2018-06-09T18:36:02.090Z,20.80
2018-06-09T18:38:30.171Z,20.70
2018-06-09T18:40:57.654Z,20.60
2018-06-09T18:48:20.229Z,20.50
2018-06-09T18:53:15.293Z,20.50
2018-06-09T18:55:42.771Z,20.40
2018-06-09T18:58:10.260Z,20.20
2018-06-09T19:00:37.774Z,20.20
2018-06-09T19:03:05.162Z,20.20
2018-06-09T19:05:32.673Z,20.10
2018-06-09T19:08:00.205Z,20.00
2018-06-09T19:10:27.721Z,19.80
2018-06-09T19:12:55.297Z,19.80
2018-06-09T19:15:22.815Z,19.70
2018-06-09T19:17:50.512Z,19.60
2018-06-09T19:20:18.303Z,19.40
2018-06-09T19:22:45.751Z,19.30
2018-06-09T19:27:40.939Z,19.20
2018-06-09T19:30:08.645Z,19.10
2018-06-09T19:32:36.210Z,19.10
2018-06-09T19:35:03.773Z,19.10
2018-06-09T19:37:31.329Z,18.90
2018-06-09T19:39:58.946Z,18.80
2018-06-09T19:42:26.607Z,18.60
2018-06-09T19:44:54.920Z,18.60
2018-06-09T19:47:22.434Z,18.40
2018-06-09T19:49:50.123Z,18.40
2018-06-09T19:54:45.156Z,18.30
2018-06-09T19:57:12.685Z,18.20
2018-06-09T19:59:40.162Z,18.20
2018-06-09T20:04:35.286Z,18.10
2018-06-09T20:07:02.923Z,18.00
2018-06-09T20:09:30.841Z,18.00
2018-06-09T20:11:58.528Z,18.00
2018-06-09T20:14:26.458Z,17.90
2018-06-09T20:16:54.006Z,17.80
2018-06-09T20:19:21.566Z,17.80
2018-06-09T20:21:49.021Z,17.80
2018-06-09T20:24:16.452Z,17.80
2018-06-09T20:26:44.205Z,17.70
2018-06-09T20:29:11.813Z,17.60
2018-06-09T20:31:39.485Z,17.50
2018-06-09T20:34:07.020Z,17.50
2018-06-09T20:36:35.251Z,17.60
2018-06-09T20:39:04.209Z,17.60
2018-06-09T20:41:31.829Z,17.50
2018-06-09T20:51:21.997Z,17.40
2018-06-09T20:53:49.868Z,17.40
2018-06-09T20:56:17.512Z,17.40
2018-06-09T20:58:45.122Z,17.40
2018-06-09T21:01:12.779Z,17.30
2018-06-09T21:03:40.786Z,17.30
2018-06-09T21:06:08.511Z,17.30
2018-06-09T21:08:35.966Z,17.30
2018-06-09T21:11:03.856Z,17.20
2018-06-09T21:13:31.563Z,17.20
2018-06-09T21:15:59.030Z,17.20
2018-06-09T21:18:26.684Z,17.20
2018-06-09T21:20:54.375Z,17.20
2018-06-09T21:23:21.900Z,17.10
2018-06-09T21:25:49.274Z,17.00
2018-06-09T21:28:22.428Z,17.00
2018-06-09T21:31:00.500Z,17.00
2018-06-09T21:33:45.427Z,17.00
2018-06-09T21:36:13.377Z,17.00
2018-06-09T21:38:47.066Z,17.00
2018-06-09T21:41:20.169Z,17.00
2018-06-09T21:43:53.944Z,17.00
2018-06-09T21:48:54.567Z,17.00
2018-06-09T21:51:21.953Z,17.00
2018-06-09T21:56:17.464Z,16.90
2018-06-09T21:58:45.437Z,16.90
2018-06-09T22:03:40.591Z,17.00
2018-06-09T22:06:08.311Z,16.90
2018-06-09T22:08:35.967Z,16.90
2018-06-09T22:11:03.700Z,16.90
2018-06-09T22:13:31.396Z,16.90
2018-06-09T22:15:59.128Z,16.90
2018-06-09T22:18:26.631Z,16.90
2018-06-09T22:23:21.605Z,16.80
2018-06-09T22:25:54.885Z,16.70
2018-06-09T22:28:22.711Z,16.60
2018-06-09T22:30:50.277Z,16.60
2018-06-09T22:33:17.931Z,16.60
2018-06-09T22:35:45.357Z,16.70
2018-06-09T22:38:12.826Z,16.60
2018-06-09T22:40:40.367Z,16.60
2018-06-09T22:43:07.849Z,16.60
2018-06-09T22:48:02.818Z,16.50
2018-06-09T22:50:30.383Z,16.50
2018-06-09T22:52:58.155Z,16.40
2018-06-09T22:55:25.749Z,16.40
2018-06-09T22:57:53.141Z,16.40
2018-06-09T23:00:49.763Z,16.40
2018-06-09T23:03:17.552Z,16.40
2018-06-09T23:05:45.450Z,16.30
2018-06-09T23:08:12.877Z,16.30
2018-06-09T23:10:41.016Z,16.30
2018-06-09T23:13:08.882Z,16.30
2018-06-09T23:15:36.586Z,16.30
2018-06-09T23:18:04.253Z,16.30
2018-06-09T23:20:31.806Z,16.20
2018-06-09T23:22:59.245Z,16.20
2018-06-09T23:25:26.977Z,16.20
2018-06-09T23:27:55.512Z,16.20
2018-06-09T23:30:23.115Z,16.20
2018-06-09T23:32:50.755Z,16.20
2018-06-09T23:37:45.843Z,16.20
2018-06-09T23:40:13.303Z,16.20
2018-06-09T23:42:41.630Z,16.20
2018-06-09T23:45:09.240Z,16.20
2018-06-09T23:47:36.666Z,16.20
2018-06-09T23:50:04.333Z,16.10
2018-06-09T23:52:31.831Z,16.10
2018-06-09T23:54:59.284Z,16.10
2018-06-09T23:57:26.801Z,16.10
2018-06-09T23:59:54.235Z,16.10
